Long Lake, NY (12847)

2:38 AM EDT on October 01, 2016 (GMT -0400)
Plumley's Garage | | Change Station

Elev 1650 ft 43.97 °N, 74.42 °W | Updated 0 second ago

Overcast
Overcast
48.7 °F
Feels Like 49 °F
N
0.0
Wind Variable Wind from SE
Gusts 0.0 mph

Today
High -- | Low -- °F
--% Chance of Precip.
Yesterday
High -- | Low -- °F
Precip. -- in
Pressure 30.33 in
Visibility 10.0 miles
Clouds Overcast 8000 ft
Windchill 49 °F
Dew Point 39 °F
Humidity 68%
Rainfall 0.04 in
Snow Depth Not available.
6:55 AM 6:37 PM
New Moon, 0% visible
METAR KSLK 010551Z AUTO 00000KT 10SM OVC080 09/07 A3032 RMK AO2 SLP271 60001 T00940072 10100 20089 58010 $
Pressure 30.33 in
Visibility 10.0 miles
Clouds Overcast 8000 ft
Windchill 49 °F
Dew Point 39 °F
Humidity 68%
Rainfall 0.04 in
Snow Depth Not available.
6:55 AM 6:37 PM
New Moon, 0% visible
METAR KSLK 010551Z AUTO 00000KT 10SM OVC080 09/07 A3032 RMK AO2 SLP271 60001 T00940072 10100 20089 58010 $

10-Day Weather Forecast

Almanac

Astronomy

Oct. 01, 2016 Rise Set
Actual Time
Civil Twilight
Nautical Twilight
Astronomical Twilight
Moon
Length of Visible Light
Length of Day
Tomorrow will be .
, % of the Moon is Illuminated

Today's Extremes

State Highs State Lows

Community

WunderPhotos

Upload Photos

1,942,898 photos uploaded!

WunderBlog® & News

Nearby

Air Quality

  Air Quality AQ Index Pollutant
Not available.

Snow Depth

Station Depth Elevation

Earthquake Activity

City Distance Mag. Time & Date
Minimum magnitude displayed is 2.5.

Coastal Water Temperatures

Place Temperature

Stations

Nearby Weather Stations

Station Location Temp. Windchill Dew Point Humidity Wind Precip. Elev Updated Type
                   

Watches & Warnings

There are currently no watches in effect.